createdAt,value
2022-09-06T00:01:36.468Z,17.9
2022-09-06T00:06:52.030Z,18.4
2022-09-06T00:12:27.530Z,18.2
2022-09-06T00:18:11.568Z,17.9
2022-09-06T00:23:31.992Z,17.7
2022-09-06T00:29:08.284Z,17.5
2022-09-06T00:34:48.406Z,17.5
2022-09-06T00:40:36.399Z,17.9
2022-09-06T00:46:08.422Z,17.8
2022-09-06T00:51:37.716Z,17.8
2022-09-06T00:57:20.728Z,17.7
2022-09-06T01:03:00.081Z,17.5
2022-09-06T01:08:17.674Z,17.5
2022-09-06T01:13:59.045Z,17.6
2022-09-06T01:19:30.028Z,17.6
2022-09-06T01:24:59.621Z,17.5
2022-09-06T01:30:29.279Z,17.3
2022-09-06T01:36:28.305Z,17.3
2022-09-06T01:42:01.310Z,17.1
2022-09-06T01:47:34.133Z,16.9
2022-09-06T01:53:05.447Z,17.1
2022-09-06T01:58:32.359Z,17.1
2022-09-06T02:04:14.308Z,16.7
2022-09-06T02:09:32.045Z,16.3
2022-09-06T02:15:18.662Z,16.3
2022-09-06T02:21:04.575Z,16.3
2022-09-06T02:26:18.686Z,16.4
2022-09-06T02:31:59.078Z,16.6
2022-09-06T02:37:29.855Z,16.8
2022-09-06T02:43:01.674Z,17
2022-09-06T02:48:40.220Z,16.8
2022-09-06T02:54:32.179Z,16.8
2022-09-06T02:59:54.241Z,16.7
2022-09-06T03:05:27.145Z,16.5
2022-09-06T03:10:56.445Z,16.4
2022-09-06T03:16:23.589Z,16.3
2022-09-06T03:22:08.735Z,16.3
2022-09-06T03:27:39.569Z,16.2
2022-09-06T03:33:23.763Z,16.1
2022-09-06T03:38:53.433Z,16.1
2022-09-06T03:44:17.991Z,16.2
2022-09-06T03:49:57.970Z,16.4
2022-09-06T03:55:25.601Z,16.5
2022-09-06T04:01:05.531Z,16.6
2022-09-06T04:06:39.537Z,16.6
2022-09-06T04:12:30.671Z,16.7
2022-09-06T04:18:03.942Z,16.6
2022-09-06T04:23:39.733Z,16.5
2022-09-06T04:29:00.070Z,16.6
2022-09-06T04:34:22.411Z,16.7
2022-09-06T04:39:58.988Z,16.8
2022-09-06T04:45:31.476Z,16.8
2022-09-06T06:04:09.809Z,17.4
2022-09-06T06:09:25.352Z,17.4
2022-09-06T06:20:37.235Z,17.4
2022-09-06T16:49:03.710Z,20.4
2022-09-06T17:00:06.758Z,20.3
2022-09-06T17:05:54.609Z,20.2
2022-09-06T17:11:30.377Z,20
2022-09-06T17:17:01.531Z,20
2022-09-06T17:22:43.828Z,20
2022-09-06T17:28:18.057Z,19.5
2022-09-06T17:33:34.338Z,19.3
2022-09-06T17:39:15.842Z,19.2
2022-09-06T17:45:09.047Z,19
2022-09-06T17:50:34.683Z,19
2022-09-06T17:56:18.022Z,19
2022-09-06T18:01:35.882Z,18.7
2022-09-06T18:07:28.347Z,18.4
2022-09-06T18:12:58.830Z,18.5
2022-09-06T18:18:25.594Z,18.4
2022-09-06T18:23:54.484Z,18.2
2022-09-06T18:29:34.910Z,18
2022-09-06T18:35:28.811Z,17.9
2022-09-06T18:40:52.226Z,17.9
2022-09-06T18:46:20.265Z,18
2022-09-06T18:52:00.667Z,18
2022-09-06T18:57:33.485Z,18.1
2022-09-06T19:03:19.762Z,18.2
2022-09-06T19:08:49.034Z,18.1
2022-09-06T19:14:16.050Z,18.1
2022-09-06T19:20:11.833Z,18.5
2022-09-06T19:25:40.410Z,18
2022-09-06T19:31:16.492Z,17.9
2022-09-06T19:36:30.790Z,17.7
2022-09-06T19:42:20.346Z,17
2022-09-06T19:48:06.459Z,17.3
2022-09-06T19:53:20.755Z,17
2022-09-06T19:59:07.674Z,17.2
2022-09-06T20:04:28.603Z,17.3
2022-09-06T20:10:17.462Z,17.4
2022-09-06T20:15:51.540Z,17.4
2022-09-06T20:21:29.493Z,17.3
2022-09-06T20:26:47.111Z,16.8
2022-09-06T20:32:21.664Z,16.4
2022-09-06T20:37:53.832Z,16.4
2022-09-06T20:44:06.821Z,16.6
2022-09-06T20:49:01.473Z,16.7
2022-09-06T20:54:43.825Z,16.7
2022-09-06T21:00:23.831Z,16.6
2022-09-06T21:05:58.863Z,16.6
2022-09-06T21:11:29.475Z,16.7
2022-09-06T21:17:17.914Z,16.8
2022-09-06T21:22:53.361Z,16.8
2022-09-06T21:28:12.683Z,16.6
2022-09-06T21:33:54.175Z,16.7
2022-09-06T21:39:12.199Z,16.8
2022-09-06T21:44:54.578Z,16.8
2022-09-06T21:50:33.164Z,16.8
2022-09-06T21:56:05.595Z,16.8
2022-09-06T22:01:38.068Z,16.6
2022-09-06T22:07:09.030Z,16.6
2022-09-06T22:12:39.174Z,16.3
2022-09-06T22:18:19.226Z,16.4
2022-09-06T22:24:10.164Z,16.5
2022-09-06T22:29:17.084Z,16.4
2022-09-06T22:34:58.029Z,16.3
2022-09-06T22:40:35.350Z,16.2
2022-09-06T22:46:22.245Z,16
2022-09-06T22:51:37.250Z,16
2022-09-06T22:57:21.154Z,15.9
2022-09-06T23:03:08.674Z,15.7
2022-09-06T23:08:35.059Z,15.8
2022-09-06T23:14:02.042Z,15.5
2022-09-06T23:19:27.696Z,15.5
2022-09-06T23:25:02.868Z,15.6
2022-09-06T23:30:43.540Z,15.9
2022-09-06T23:36:26.887Z,15.9
2022-09-06T23:41:54.779Z,15.8
2022-09-06T23:47:15.299Z,15.8
2022-09-06T23:53:17.134Z,15.9
2022-09-06T23:58:35.346Z,15.9
